Pagrindinis puslapis
METAR-TAF:

METAR-TAF

Oro uostai :

La Pasas, Bolivija

platuma: 16-31S, ilguma: 068-11W, Aukštis: 4058 m

Dabartinis oras

Ataskaita buvo paskelbta 1 valandą ir 4 minutes, ne 04:00 UTC
Vėjas 2 kt nuo kintamojo kryptimis
Temperatūra 1°C
Drėgmė 34%
Slėgis 1038 hPa
Matomumas 10 km arba daugiau

METAR: SLLP 290400Z VRB02KT 9999 NSC 01/M13 Q1038

Laikas: 01:04 (05:04 UTC)

Prognozė

Ataskaita buvo paskelbta 7 valandos ir 4 minutes, ne 22:00 UTC
Prognozė galioja nuo 29 metu 00 UTC su 29 metu 24 UTC
Vėjas 5 kt iš Šiaurės Rytų
Matomumas 10 km arba daugiau
Tapsmas
nuo 29 metu 14 UTC su 29 metu 16 UTC
Vėjas 8 kt iš Pietų/Pietvakarių

TAF: SLLP 282200Z 2900/2924 05005KT 9999 NSC TX17/2920Z TNM04/2910Z BECMG 2914/2916 21008KT

Orai ataskaitas ir orų prognozės (METAR, TAF).

turimą stotys yra geltonos ir raudonos taškus žemėlapyje.

Perkelti pele per norėdami pamatyti stoties vardą.

Tada spustelėkite, norėdami matyti oro stebėjimo ir prognozės.

Norėdami pakeisti žemėlapį: spustelėkite ant žalios mygtukų su juodo kryžiaus žemyn,; žalią mygtuką su brūkšneliu, jei norite nutolinti; arba žalių rodyklių gretimoms žemėlapius.


METAR-TAF: